sensor_id;sensor_type;location;lat;lon;timestamp;P1;durP1;ratioP1;P2;durP2;ratioP2
70075;SDS011;63241;51.056;3.698;2023-04-03T00:01:06;19.70;;;11.88;;
70075;SDS011;63241;51.056;3.698;2023-04-03T00:03:34;18.65;;;11.93;;
70075;SDS011;63241;51.056;3.698;2023-04-03T00:06:02;18.90;;;11.05;;
70075;SDS011;63241;51.056;3.698;2023-04-03T00:08:32;18.70;;;10.25;;
70075;SDS011;63241;51.056;3.698;2023-04-03T00:11:00;18.67;;;10.72;;
70075;SDS011;63241;51.056;3.698;2023-04-03T00:13:28;18.10;;;10.20;;
70075;SDS011;63241;51.056;3.698;2023-04-03T00:15:56;17.10;;;9.93;;
70075;SDS011;63241;51.056;3.698;2023-04-03T00:18:24;16.60;;;9.25;;
70075;SDS011;63241;51.056;3.698;2023-04-03T00:20:51;14.68;;;9.48;;
70075;SDS011;63241;51.056;3.698;2023-04-03T00:23:19;14.35;;;8.33;;
70075;SDS011;63241;51.056;3.698;2023-04-03T00:25:49;19.12;;;9.73;;
70075;SDS011;63241;51.056;3.698;2023-04-03T00:28:17;17.05;;;9.48;;
70075;SDS011;63241;51.056;3.698;2023-04-03T00:30:45;15.38;;;8.15;;
70075;SDS011;63241;51.056;3.698;2023-04-03T00:33:13;17.15;;;9.50;;
70075;SDS011;63241;51.056;3.698;2023-04-03T00:35:41;13.53;;;9.00;;
70075;SDS011;63241;51.056;3.698;2023-04-03T00:38:09;15.18;;;8.93;;
70075;SDS011;63241;51.056;3.698;2023-04-03T00:40:38;14.63;;;8.33;;
70075;SDS011;63241;51.056;3.698;2023-04-03T00:43:15;13.83;;;7.80;;
70075;SDS011;63241;51.056;3.698;2023-04-03T00:45:46;16.65;;;8.73;;
70075;SDS011;63241;51.056;3.698;2023-04-03T00:48:20;16.15;;;8.35;;
70075;SDS011;63241;51.056;3.698;2023-04-03T00:50:49;17.62;;;9.15;;
70075;SDS011;63241;51.056;3.698;2023-04-03T00:53:21;16.57;;;8.58;;
70075;SDS011;63241;51.056;3.698;2023-04-03T00:55:55;13.68;;;8.20;;
70075;SDS011;63241;51.056;3.698;2023-04-03T00:58:26;19.73;;;9.23;;
70075;SDS011;63241;51.056;3.698;2023-04-03T01:00:55;20.95;;;8.88;;
70075;SDS011;63241;51.056;3.698;2023-04-03T01:03:24;15.35;;;9.33;;
70075;SDS011;63241;51.056;3.698;2023-04-03T01:05:52;15.70;;;8.58;;
70075;SDS011;63241;51.056;3.698;2023-04-03T01:08:20;16.80;;;8.28;;
70075;SDS011;63241;51.056;3.698;2023-04-03T01:10:48;16.93;;;8.90;;
70075;SDS011;63241;51.056;3.698;2023-04-03T01:13:24;14.07;;;8.15;;
70075;SDS011;63241;51.056;3.698;2023-04-03T01:15:52;15.18;;;9.18;;
70075;SDS011;63241;51.056;3.698;2023-04-03T01:18:21;17.02;;;9.05;;
70075;SDS011;63241;51.056;3.698;2023-04-03T01:20:59;11.88;;;7.67;;
70075;SDS011;63241;51.056;3.698;2023-04-03T01:23:42;15.90;;;8.85;;
70075;SDS011;63241;51.056;3.698;2023-04-03T01:26:13;14.33;;;8.58;;
70075;SDS011;63241;51.056;3.698;2023-04-03T01:28:41;15.23;;;8.80;;
70075;SDS011;63241;51.056;3.698;2023-04-03T01:33:54;14.75;;;9.00;;
70075;SDS011;63241;51.056;3.698;2023-04-03T01:36:23;17.00;;;9.00;;
70075;SDS011;63241;51.056;3.698;2023-04-03T01:38:53;15.20;;;8.83;;
70075;SDS011;63241;51.056;3.698;2023-04-03T01:41:21;17.05;;;8.85;;
70075;SDS011;63241;51.056;3.698;2023-04-03T01:43:49;14.07;;;8.23;;
70075;SDS011;63241;51.056;3.698;2023-04-03T01:46:17;17.75;;;8.90;;
70075;SDS011;63241;51.056;3.698;2023-04-03T01:48:46;15.20;;;8.53;;
70075;SDS011;63241;51.056;3.698;2023-04-03T01:51:14;19.80;;;9.08;;
70075;SDS011;63241;51.056;3.698;2023-04-03T01:53:42;16.25;;;8.98;;
70075;SDS011;63241;51.056;3.698;2023-04-03T01:56:09;14.58;;;8.70;;
70075;SDS011;63241;51.056;3.698;2023-04-03T01:58:37;14.13;;;8.80;;
70075;SDS011;63241;51.056;3.698;2023-04-03T02:01:05;14.30;;;8.85;;
70075;SDS011;63241;51.056;3.698;2023-04-03T02:03:33;21.00;;;8.88;;
70075;SDS011;63241;51.056;3.698;2023-04-03T02:06:00;14.75;;;8.60;;
70075;SDS011;63241;51.056;3.698;2023-04-03T02:08:28;19.35;;;9.10;;
70075;SDS011;63241;51.056;3.698;2023-04-03T02:10:56;15.68;;;9.75;;
70075;SDS011;63241;51.056;3.698;2023-04-03T02:13:24;18.12;;;9.50;;
70075;SDS011;63241;51.056;3.698;2023-04-03T02:15:51;15.50;;;9.10;;
70075;SDS011;63241;51.056;3.698;2023-04-03T02:18:19;12.15;;;8.70;;
70075;SDS011;63241;51.056;3.698;2023-04-03T02:20:47;16.50;;;9.38;;
70075;SDS011;63241;51.056;3.698;2023-04-03T02:23:15;17.65;;;9.90;;
70075;SDS011;63241;51.056;3.698;2023-04-03T02:25:42;16.97;;;9.38;;
70075;SDS011;63241;51.056;3.698;2023-04-03T02:28:10;17.92;;;9.38;;
70075;SDS011;63241;51.056;3.698;2023-04-03T02:30:38;18.07;;;9.73;;
70075;SDS011;63241;51.056;3.698;2023-04-03T02:33:06;18.12;;;10.08;;
70075;SDS011;63241;51.056;3.698;2023-04-03T02:35:33;14.25;;;9.78;;
70075;SDS011;63241;51.056;3.698;2023-04-03T02:38:02;14.25;;;9.10;;
70075;SDS011;63241;51.056;3.698;2023-04-03T08:01:58;9.60;;;4.10;;
70075;SDS011;63241;51.056;3.698;2023-04-03T08:04:26;7.08;;;4.37;;
70075;SDS011;63241;51.056;3.698;2023-04-03T08:06:53;5.85;;;4.17;;
70075;SDS011;63241;51.056;3.698;2023-04-03T08:15:52;7.23;;;4.27;;
70075;SDS011;63241;51.056;3.698;2023-04-03T08:18:22;8.35;;;4.70;;
70075;SDS011;63241;51.056;3.698;2023-04-03T08:20:51;10.18;;;5.12;;
70075;SDS011;63241;51.056;3.698;2023-04-03T09:01:23;8.18;;;3.95;;
70075;SDS011;63241;51.056;3.698;2023-04-03T09:28:00;10.43;;;3.30;;
70075;SDS011;63241;51.056;3.698;2023-04-03T09:30:28;8.38;;;2.90;;
70075;SDS011;63241;51.056;3.698;2023-04-03T09:32:56;7.10;;;3.08;;
70075;SDS011;63241;51.056;3.698;2023-04-03T09:44:34;6.22;;;2.72;;
70075;SDS011;63241;51.056;3.698;2023-04-03T09:47:21;5.20;;;2.60;;
70075;SDS011;63241;51.056;3.698;2023-04-03T09:56:02;6.62;;;3.10;;
70075;SDS011;63241;51.056;3.698;2023-04-03T09:58:38;6.10;;;2.92;;
70075;SDS011;63241;51.056;3.698;2023-04-03T10:01:20;9.13;;;3.05;;
70075;SDS011;63241;51.056;3.698;2023-04-03T10:07:42;6.78;;;2.67;;
70075;SDS011;63241;51.056;3.698;2023-04-03T10:15:11;4.75;;;2.22;;
70075;SDS011;63241;51.056;3.698;2023-04-03T10:23:33;4.25;;;2.55;;
70075;SDS011;63241;51.056;3.698;2023-04-03T10:26:17;7.85;;;2.33;;
70075;SDS011;63241;51.056;3.698;2023-04-03T10:28:54;6.35;;;2.80;;
70075;SDS011;63241;51.056;3.698;2023-04-03T10:34:48;4.87;;;2.72;;
70075;SDS011;63241;51.056;3.698;2023-04-03T10:39:57;5.22;;;2.22;;
70075;SDS011;63241;51.056;3.698;2023-04-03T10:42:36;8.08;;;2.67;;
70075;SDS011;63241;51.056;3.698;2023-04-03T10:51:45;3.72;;;2.15;;
70075;SDS011;63241;51.056;3.698;2023-04-03T10:54:32;4.28;;;2.30;;
70075;SDS011;63241;51.056;3.698;2023-04-03T11:02:49;3.67;;;2.45;;
70075;SDS011;63241;51.056;3.698;2023-04-03T11:05:21;4.45;;;1.77;;
70075;SDS011;63241;51.056;3.698;2023-04-03T11:07:52;6.12;;;2.08;;
70075;SDS011;63241;51.056;3.698;2023-04-03T11:14:09;6.75;;;1.82;;
70075;SDS011;63241;51.056;3.698;2023-04-03T11:17:04;5.55;;;1.77;;
70075;SDS011;63241;51.056;3.698;2023-04-03T11:19:42;3.33;;;1.75;;
70075;SDS011;63241;51.056;3.698;2023-04-03T11:22:23;4.42;;;1.62;;
70075;SDS011;63241;51.056;3.698;2023-04-03T11:36:49;6.58;;;1.85;;
70075;SDS011;63241;51.056;3.698;2023-04-03T12:54:46;5.28;;;1.67;;
70075;SDS011;63241;51.056;3.698;2023-04-03T13:03:21;3.77;;;1.87;;
70075;SDS011;63241;51.056;3.698;2023-04-03T13:06:01;6.35;;;2.00;;
70075;SDS011;63241;51.056;3.698;2023-04-03T13:08:30;6.87;;;2.00;;
70075;SDS011;63241;51.056;3.698;2023-04-03T13:24:18;9.88;;;1.65;;
70075;SDS011;63241;51.056;3.698;2023-04-03T13:33:20;2.98;;;1.40;;
70075;SDS011;63241;51.056;3.698;2023-04-03T13:35:54;3.67;;;1.47;;
70075;SDS011;63241;51.056;3.698;2023-04-03T13:38:25;4.12;;;1.57;;
70075;SDS011;63241;51.056;3.698;2023-04-03T13:40:58;3.55;;;1.50;;
70075;SDS011;63241;51.056;3.698;2023-04-03T13:43:53;3.15;;;1.40;;
70075;SDS011;63241;51.056;3.698;2023-04-03T13:46:50;3.55;;;1.55;;
70075;SDS011;63241;51.056;3.698;2023-04-03T13:49:43;2.62;;;1.22;;
70075;SDS011;63241;51.056;3.698;2023-04-03T14:04:21;5.33;;;1.37;;
70075;SDS011;63241;51.056;3.698;2023-04-03T14:06:54;2.80;;;1.32;;
70075;SDS011;63241;51.056;3.698;2023-04-03T14:09:25;4.15;;;1.50;;
70075;SDS011;63241;51.056;3.698;2023-04-03T14:14:50;6.70;;;1.32;;
70075;SDS011;63241;51.056;3.698;2023-04-03T14:17:19;4.08;;;1.45;;
70075;SDS011;63241;51.056;3.698;2023-04-03T14:19:48;2.58;;;1.30;;
70075;SDS011;63241;51.056;3.698;2023-04-03T14:28:33;2.98;;;1.40;;
70075;SDS011;63241;51.056;3.698;2023-04-03T14:31:01;3.72;;;1.20;;
70075;SDS011;63241;51.056;3.698;2023-04-03T14:33:29;4.35;;;1.65;;
70075;SDS011;63241;51.056;3.698;2023-04-03T14:42:13;2.67;;;1.12;;
70075;SDS011;63241;51.056;3.698;2023-04-03T14:44:43;3.02;;;1.70;;
70075;SDS011;63241;51.056;3.698;2023-04-03T14:47:18;2.55;;;1.40;;
70075;SDS011;63241;51.056;3.698;2023-04-03T14:56:00;5.97;;;2.25;;
70075;SDS011;63241;51.056;3.698;2023-04-03T14:58:28;3.37;;;1.67;;
70075;SDS011;63241;51.056;3.698;2023-04-03T15:00:57;2.58;;;1.45;;
70075;SDS011;63241;51.056;3.698;2023-04-03T15:12:47;3.17;;;1.52;;
70075;SDS011;63241;51.056;3.698;2023-04-03T15:15:16;3.05;;;1.57;;
70075;SDS011;63241;51.056;3.698;2023-04-03T15:23:41;4.55;;;1.70;;
70075;SDS011;63241;51.056;3.698;2023-04-03T15:26:09;2.30;;;1.27;;
70075;SDS011;63241;51.056;3.698;2023-04-03T15:28:40;3.10;;;1.70;;
70075;SDS011;63241;51.056;3.698;2023-04-03T15:31:14;4.60;;;1.62;;
70075;SDS011;63241;51.056;3.698;2023-04-03T15:36:38;3.67;;;1.70;;
70075;SDS011;63241;51.056;3.698;2023-04-03T15:39:05;4.17;;;1.60;;
70075;SDS011;63241;51.056;3.698;2023-04-03T15:41:33;2.55;;;1.50;;
70075;SDS011;63241;51.056;3.698;2023-04-03T15:50:33;4.00;;;1.67;;
70075;SDS011;63241;51.056;3.698;2023-04-03T15:53:02;10.13;;;1.60;;
70075;SDS011;63241;51.056;3.698;2023-04-03T15:55:31;3.65;;;1.50;;
70075;SDS011;63241;51.056;3.698;2023-04-03T16:06:56;3.20;;;1.62;;
70075;SDS011;63241;51.056;3.698;2023-04-03T16:09:24;5.67;;;1.72;;
70075;SDS011;63241;51.056;3.698;2023-04-03T16:18:00;5.78;;;1.98;;
70075;SDS011;63241;51.056;3.698;2023-04-03T16:20:28;3.35;;;1.45;;
70075;SDS011;63241;51.056;3.698;2023-04-03T16:22:57;4.10;;;1.30;;
70075;SDS011;63241;51.056;3.698;2023-04-03T16:31:37;3.08;;;1.37;;
70075;SDS011;63241;51.056;3.698;2023-04-03T16:34:05;3.87;;;1.37;;
70075;SDS011;63241;51.056;3.698;2023-04-03T16:36:33;7.95;;;1.77;;
70075;SDS011;63241;51.056;3.698;2023-04-03T16:45:22;3.72;;;1.60;;
70075;SDS011;63241;51.056;3.698;2023-04-03T16:47:50;5.90;;;2.02;;
70075;SDS011;63241;51.056;3.698;2023-04-03T16:50:18;4.90;;;1.60;;
70075;SDS011;63241;51.056;3.698;2023-04-03T16:58:59;5.08;;;1.70;;
70075;SDS011;63241;51.056;3.698;2023-04-03T17:01:27;2.08;;;1.32;;
70075;SDS011;63241;51.056;3.698;2023-04-03T17:03:55;6.12;;;2.10;;
70075;SDS011;63241;51.056;3.698;2023-04-03T17:12:36;3.58;;;2.02;;
70075;SDS011;63241;51.056;3.698;2023-04-03T17:15:04;5.03;;;1.60;;
70075;SDS011;63241;51.056;3.698;2023-04-03T17:17:32;5.35;;;2.10;;
